SBGO/GYN METAR and TAF weather

Enter ICAO airport designator
Station Type Date Time Source
SBGO METAR 2019/07/18 11:00 UTC NOAA

SBGO 181100Z 12007KT CAVOK 16/12 Q1022


Station Type Date Time Source
SBGO Decoded METAR 2019/07/18 11:00 UTC NOAA

Goiania Aeroporto , Brazil (SBGO) 16-38S 049-13W
Jul 18, 2019 - 07:00 AM EDT / 2019.07.18 1100 UTC
Wind: from the ESE (120 degrees) at 8 MPH (7 KT):0
Visibility: greater than 7 mile(s):0
Temperature: 60 F (16 C)
Dew Point: 53 F (12 C)
Relative Humidity: 77%
Pressure (altimeter): 30.18 in. Hg (1022 hPa)
ob: SBGO 181100Z 12007KT CAVOK 16/12 Q1022
cycle: 11

Station Type Date Time Source
SBGO TAF 2019/07/18 12:48 UTC NOAA

TAF TAF SBGO 181000Z 1812/1912 14005KT CAVOK TX31/1817Z TN13/1909Z
RMK PE D

Example: see airport list